Terminal Aerodrome Forecast
Issued by NWS

Home | Current Version | Previous Version | Graphics & Text | Print | Product List | Glossary On
Versions: 1 2 3 4 5 6 7 8 9 10 11 12 13 14 15 16 17 18 19
000
FTUS43 KMPX 172102 AAB
TAFAXN
TAF AMD
KAXN 172102Z 1721/1818 31020G27KT 5SM BLSN BKN018
     FM180200 31012KT 6SM BLSN BKN035
     FM181200 25007KT P6SM BKN120=

USA.gov is the U.S. government's official web portal to all federal, state and local government web resources and services.